Time;durP1;ratioP1;P1;durP2;ratioP2;P2;SDS_P1;SDS_P2;PMS_P1;PMS_P2;Temp;Humidity;BMP_temperature;BMP_pressure;BME280_temperature;BME280_humidity;BME280_pressure;Samples;Min_cycle;Max_cycle;Signal;HPM_P1;HPM_P2
2023/04/14 00:01:54;;;;;;;5.80;2.80;;;8.80;99.90;;;;;;5014476;28;20187;-76
2023/04/14 00:04:19;;;;;;;5.17;2.23;;;8.90;99.90;;;;;;5018784;28;20636;-77
2023/04/14 00:06:45;;;;;;;8.47;2.50;;;8.90;99.90;;;;;;5011818;28;20174;-76
2023/04/14 00:09:11;;;;;;;4.30;1.93;;;8.70;99.90;;;;;;5027794;28;20171;-76
2023/04/14 00:11:36;;;;;;;4.53;2.20;;;8.50;99.90;;;;;;5019585;28;20198;-75
2023/04/14 00:14:02;;;;;;;5.10;2.20;;;8.60;99.90;;;;;;5017655;28;20649;-77
2023/04/14 00:16:29;;;;;;;6.30;1.90;;;8.60;99.90;;;;;;5022109;28;20185;-77
2023/04/14 00:18:55;;;;;;;4.00;1.93;;;8.50;99.90;;;;;;4995606;28;20284;-75
2023/04/14 00:21:21;;;;;;;6.57;2.20;;;8.50;99.90;;;;;;5017185;28;20891;-75
2023/04/14 00:23:47;;;;;;;5.90;2.30;;;8.50;99.90;;;;;;5015776;28;20189;-75
2023/04/14 00:26:13;;;;;;;8.47;2.60;;;8.40;99.90;;;;;;5021089;28;20935;-77
2023/04/14 00:28:39;;;;;;;6.50;2.40;;;8.50;99.90;;;;;;5014401;28;20440;-77
2023/04/14 00:31:05;;;;;;;3.63;1.40;;;8.50;99.90;;;;;;5014298;28;20208;-76
2023/04/14 00:33:31;;;;;;;4.37;2.10;;;8.70;99.90;;;;;;5006747;28;20191;-78
2023/04/14 00:35:57;;;;;;;3.30;1.83;;;8.50;99.90;;;;;;5011484;28;20447;-77
2023/04/14 00:38:24;;;;;;;6.60;2.07;;;8.50;99.90;;;;;;5023856;28;20219;-75
2023/04/14 00:40:49;;;;;;;5.27;1.73;;;8.60;99.90;;;;;;5015992;28;20261;-77
2023/04/14 00:43:19;;;;;;;4.70;2.20;;;8.50;99.90;;;;;;5022093;28;20417;-77
2023/04/14 00:45:48;;;;;;;4.73;2.10;;;8.50;99.90;;;;;;5013498;28;20693;-77
2023/04/14 00:48:15;;;;;;;2.70;1.63;;;8.40;99.90;;;;;;5019800;28;20870;-76
2023/04/14 00:50:42;;;;;;;5.40;2.17;;;8.40;99.90;;;;;;5012018;28;20504;-76
2023/04/14 00:53:08;;;;;;;2.40;1.70;;;8.30;99.90;;;;;;5022812;28;20464;-76
2023/04/14 00:55:35;;;;;;;3.20;1.93;;;8.40;99.90;;;;;;5024688;28;20429;-76
2023/04/14 00:58:01;;;;;;;6.93;2.43;;;8.60;99.90;;;;;;4992828;28;20454;-77
2023/04/14 01:00:27;;;;;;;4.13;1.83;;;8.20;99.90;;;;;;5011677;28;20820;-76
2023/04/14 01:02:53;;;;;;;5.40;2.23;;;8.40;99.90;;;;;;5016503;28;21261;-76
2023/04/14 01:05:18;;;;;;;4.60;2.10;;;8.50;99.90;;;;;;5021961;28;20430;-76
2023/04/14 01:07:47;;;;;;;3.70;2.20;;;8.10;99.90;;;;;;5020906;28;20198;-75
2023/04/14 01:10:13;;;;;;;7.63;3.43;;;8.30;99.90;;;;;;5024792;28;20277;-76
2023/04/14 01:12:48;;;;;;;4.30;2.47;;;8.10;99.90;;;;;;5014512;28;20420;-77
2023/04/14 01:15:31;;;;;;;4.90;2.87;;;8.20;99.90;;;;;;5017311;28;20433;-76
2023/04/14 01:17:59;;;;;;;6.40;2.97;;;8.00;99.90;;;;;;5016497;28;20472;-76
2023/04/14 01:20:25;;;;;;;7.10;2.60;;;8.10;99.90;;;;;;4997917;28;20966;-76
2023/04/14 01:23:03;;;;;;;9.03;2.73;;;8.00;99.90;;;;;;5005684;28;20414;-77
2023/04/14 01:26:03;;;;;;;6.43;3.97;;;8.00;99.90;;;;;;5012006;28;20977;-76
2023/04/14 01:28:50;;;;;;;3.43;2.73;;;8.00;99.90;;;;;;5016938;28;20435;-76
2023/04/14 01:31:22;;;;;;;7.07;3.30;;;7.80;99.90;;;;;;5006014;28;20431;-76
2023/04/14 01:34:12;;;;;;;5.47;3.57;;;7.90;99.90;;;;;;5021490;28;20425;-76
2023/04/14 01:36:44;;;;;;;7.70;3.60;;;7.70;99.90;;;;;;5007406;28;20561;-75
2023/04/14 01:39:14;;;;;;;6.13;2.80;;;7.70;99.90;;;;;;5008909;28;20466;-77
2023/04/14 01:41:47;;;;;;;6.53;3.93;;;7.60;99.90;;;;;;5012888;28;20434;-76
2023/04/14 01:44:14;;;;;;;5.97;3.10;;;7.60;99.90;;;;;;5023900;28;20970;-76
2023/04/14 01:46:41;;;;;;;5.93;3.07;;;7.70;99.90;;;;;;5025100;28;20437;-76
2023/04/14 01:49:08;;;;;;;8.43;3.37;;;7.80;99.90;;;;;;5014416;28;20924;-76
2023/04/14 01:51:35;;;;;;;9.77;3.10;;;7.70;99.90;;;;;;5022379;28;20441;-76
2023/04/14 01:54:01;;;;;;;6.40;3.53;;;7.70;99.90;;;;;;5013561;28;20424;-76
2023/04/14 01:56:28;;;;;;;3.47;3.07;;;8.00;99.90;;;;;;5014424;28;20417;-75
2023/04/14 01:58:56;;;;;;;8.00;3.40;;;7.70;99.90;;;;;;5020794;28;20585;-76
2023/04/14 02:01:24;;;;;;;3.87;2.80;;;7.80;99.90;;;;;;5025237;28;20441;-76
2023/04/14 02:03:50;;;;;;;4.03;2.70;;;8.10;99.90;;;;;;5011814;28;20409;-76
2023/04/14 02:06:16;;;;;;;5.17;3.23;;;8.00;99.90;;;;;;5014214;28;20422;-76
2023/04/14 02:08:43;;;;;;;8.30;3.30;;;7.90;99.90;;;;;;5012181;28;20414;-76
2023/04/14 02:11:11;;;;;;;4.57;2.80;;;8.00;99.90;;;;;;5014087;28;20437;-76
2023/04/14 02:13:40;;;;;;;5.73;2.97;;;8.00;99.90;;;;;;5021227;28;20413;-76
2023/04/14 02:16:09;;;;;;;7.00;3.90;;;8.00;99.90;;;;;;5006957;28;20418;-76
2023/04/14 02:18:36;;;;;;;5.63;2.80;;;8.30;99.90;;;;;;5016261;28;20535;-75
2023/04/14 02:21:03;;;;;;;6.27;2.97;;;8.10;99.90;;;;;;5012303;28;20977;-76
2023/04/14 02:23:30;;;;;;;5.53;3.10;;;8.10;99.90;;;;;;5012099;28;20468;-76
2023/04/14 02:26:13;;;;;;;5.87;3.20;;;8.20;99.90;;;;;;5020946;28;20493;-76
2023/04/14 02:28:47;;;;;;;5.50;2.70;;;8.10;99.90;;;;;;5022084;28;20428;-76
2023/04/14 02:31:20;;;;;;;5.17;3.00;;;8.00;99.90;;;;;;5009796;28;20426;-76
2023/04/14 02:33:51;;;;;;;4.53;3.10;;;8.00;99.90;;;;;;5027149;28;21073;-76
2023/04/14 02:36:21;;;;;;;5.10;2.60;;;8.00;99.90;;;;;;5015731;28;20409;-76
2023/04/14 02:39:00;;;;;;;5.23;2.73;;;7.90;99.90;;;;;;5029495;28;21068;-76
2023/04/14 02:41:29;;;;;;;5.37;2.60;;;7.70;99.90;;;;;;5025607;28;20627;-76
2023/04/14 02:44:05;;;;;;;6.93;3.03;;;7.80;99.90;;;;;;5010595;28;20439;-75
2023/04/14 02:46:34;;;;;;;4.43;2.33;;;7.80;99.90;;;;;;4995987;28;20424;-75
2023/04/14 02:49:04;;;;;;;7.03;2.30;;;7.80;99.90;;;;;;5010555;28;20422;-76
2023/04/14 02:51:33;;;;;;;3.27;2.40;;;7.80;99.90;;;;;;5020373;28;21002;-76
2023/04/14 02:53:59;;;;;;;3.93;2.50;;;7.70;99.90;;;;;;5014179;28;20414;-76
2023/04/14 02:56:25;;;;;;;6.17;2.23;;;7.50;99.90;;;;;;5024527;28;20437;-76
2023/04/14 02:58:51;;;;;;;4.00;1.87;;;7.40;99.90;;;;;;5008404;28;20518;-75
2023/04/14 03:01:18;;;;;;;6.27;2.60;;;7.30;99.90;;;;;;5026686;28;20433;-76
2023/04/14 03:03:44;;;;;;;5.50;1.97;;;7.70;99.90;;;;;;5021423;28;20216;-75
2023/04/14 03:06:14;;;;;;;4.27;2.20;;;7.50;99.90;;;;;;5018208;28;20410;-76
2023/04/14 03:08:40;;;;;;;6.90;3.00;;;7.40;99.90;;;;;;5022084;28;20421;-76
2023/04/14 03:11:07;;;;;;;3.10;1.90;;;7.40;99.90;;;;;;5018171;28;20475;-76
2023/04/14 03:13:34;;;;;;;4.60;2.40;;;7.40;99.90;;;;;;5023560;28;20425;-76
2023/04/14 03:16:02;;;;;;;7.00;2.40;;;7.40;99.90;;;;;;5018592;28;20414;-76
2023/04/14 03:18:30;;;;;;;5.60;1.90;;;7.30;99.90;;;;;;5018154;28;20465;-76
2023/04/14 03:20:59;;;;;;;5.10;2.77;;;7.40;99.90;;;;;;5012734;28;20438;-76
2023/04/14 03:23:26;;;;;;;4.47;2.10;;;7.20;99.90;;;;;;5022860;28;20467;-76
2023/04/14 03:25:52;;;;;;;3.23;2.20;;;7.20;99.90;;;;;;5014449;28;20483;-76
2023/04/14 03:28:21;;;;;;;5.10;2.13;;;7.10;99.90;;;;;;5023602;28;21317;-76
2023/04/14 03:30:52;;;;;;;5.10;2.17;;;7.30;99.90;;;;;;5017747;28;20499;-76
2023/04/14 03:33:23;;;;;;;3.20;1.93;;;7.20;99.90;;;;;;5024293;28;20751;-76
2023/04/14 03:35:52;;;;;;;4.23;2.43;;;7.00;99.90;;;;;;5019369;28;20433;-76
2023/04/14 03:38:19;;;;;;;3.23;1.83;;;7.10;99.90;;;;;;5022893;28;20476;-76
2023/04/14 03:40:47;;;;;;;4.30;2.40;;;7.10;99.90;;;;;;5024841;28;20497;-76
2023/04/14 03:43:21;;;;;;;5.27;2.53;;;7.00;99.90;;;;;;5012426;28;20418;-76
2023/04/14 03:45:48;;;;;;;6.03;2.40;;;7.00;99.90;;;;;;5024236;28;20429;-76
2023/04/14 03:48:18;;;;;;;4.83;2.67;;;7.10;99.90;;;;;;5017181;28;20474;-76
2023/04/14 03:50:47;;;;;;;5.10;2.17;;;6.80;99.90;;;;;;5018450;28;20446;-76
2023/04/14 03:53:15;;;;;;;3.30;1.93;;;6.90;99.90;;;;;;5026101;28;20424;-76
2023/04/14 03:55:44;;;;;;;5.70;1.90;;;6.80;99.90;;;;;;5028453;28;20821;-76
2023/04/14 03:58:16;;;;;;;4.40;2.10;;;6.80;99.90;;;;;;5020516;28;20955;-75
2023/04/14 04:00:42;;;;;;;4.77;2.47;;;6.90;99.90;;;;;;5010296;28;20430;-76
2023/04/14 04:03:09;;;;;;;5.53;2.53;;;6.90;99.90;;;;;;5008367;28;20896;-76
2023/04/14 04:05:39;;;;;;;3.97;2.33;;;6.70;99.90;;;;;;4991201;28;20451;-76
2023/04/14 04:08:07;;;;;;;2.80;1.97;;;6.70;99.90;;;;;;4991010;28;20426;-76
2023/04/14 04:10:33;;;;;;;7.17;2.77;;;6.70;99.90;;;;;;4990941;28;20434;-76
2023/04/14 04:13:07;;;;;;;3.17;2.63;;;6.70;99.90;;;;;;4991063;28;20415;-76
2023/04/14 04:15:35;;;;;;;4.63;1.77;;;6.80;99.90;;;;;;4991253;28;20425;-76
2023/04/14 04:18:05;;;;;;;5.13;2.60;;;7.00;99.90;;;;;;4989417;28;20454;-76
2023/04/14 04:20:31;;;;;;;4.73;1.53;;;6.80;99.90;;;;;;4990759;28;20466;-76
2023/04/14 04:23:00;;;;;;;4.30;2.50;;;6.90;99.90;;;;;;4990935;28;20411;-76
2023/04/14 04:25:26;;;;;;;5.43;2.20;;;6.90;99.90;;;;;;4990990;28;21110;-76
2023/04/14 04:27:52;;;;;;;5.37;2.63;;;7.10;99.90;;;;;;4990459;28;20419;-76
2023/04/14 04:30:20;;;;;;;5.30;2.17;;;7.00;99.90;;;;;;4990577;28;20569;-76
2023/04/14 04:32:46;;;;;;;4.67;2.50;;;6.90;99.90;;;;;;5008476;28;20472;-76
2023/04/14 04:35:13;;;;;;;4.13;1.73;;;7.00;99.90;;;;;;5008753;28;20406;-76
2023/04/14 04:37:40;;;;;;;2.60;1.80;;;7.10;99.90;;;;;;5008225;28;20272;-75
2023/04/14 04:40:06;;;;;;;8.17;2.53;;;7.10;99.90;;;;;;5008589;28;20484;-76
2023/04/14 04:42:32;;;;;;;3.60;1.97;;;6.90;99.90;;;;;;5010034;28;20461;-75
2023/04/14 04:44:57;;;;;;;4.10;2.27;;;7.00;99.90;;;;;;5009715;28;20803;-76
2023/04/14 04:47:23;;;;;;;6.10;2.23;;;7.00;99.90;;;;;;5009783;28;20234;-76
2023/04/14 04:49:49;;;;;;;5.47;3.00;;;7.20;99.90;;;;;;5009905;28;20203;-75
2023/04/14 04:52:14;;;;;;;5.10;2.00;;;7.20;99.90;;;;;;5004327;28;20182;-75
2023/04/14 04:54:40;;;;;;;5.90;2.40;;;7.30;99.90;;;;;;4996219;28;20222;-76
2023/04/14 04:57:05;;;;;;;3.80;1.90;;;7.20;99.90;;;;;;5005882;28;20654;-75
2023/04/14 04:59:32;;;;;;;7.97;2.30;;;7.40;99.90;;;;;;5007754;28;20221;-75
2023/04/14 05:01:57;;;;;;;3.47;2.10;;;7.40;99.90;;;;;;5001800;28;20176;-75
2023/04/14 05:04:23;;;;;;;4.53;2.87;;;7.50;99.90;;;;;;5001633;28;20443;-76
2023/04/14 05:06:49;;;;;;;4.13;1.93;;;7.40;99.90;;;;;;5000067;28;20191;-75
2023/04/14 05:09:14;;;;;;;5.73;2.20;;;7.40;99.90;;;;;;4995609;28;20183;-76
2023/04/14 05:11:40;;;;;;;5.80;2.10;;;7.40;99.90;;;;;;5004804;28;20250;-76
2023/04/14 05:14:06;;;;;;;4.23;2.20;;;7.40;99.90;;;;;;4990097;28;20760;-76
2023/04/14 05:16:32;;;;;;;3.00;2.23;;;7.20;99.90;;;;;;5002466;28;20426;-75
2023/04/14 05:18:58;;;;;;;5.03;2.17;;;7.20;99.90;;;;;;5001185;28;20205;-76
2023/04/14 05:21:23;;;;;;;5.17;2.07;;;7.20;99.90;;;;;;5003644;28;20446;-76
2023/04/14 05:23:49;;;;;;;5.10;2.20;;;7.30;99.90;;;;;;4999514;28;20183;-75
2023/04/14 05:26:15;;;;;;;4.00;2.00;;;7.20;99.90;;;;;;4990263;28;20253;-76
2023/04/14 05:28:41;;;;;;;3.77;2.20;;;7.30;99.90;;;;;;4999074;28;20218;-76
2023/04/14 05:31:07;;;;;;;4.53;2.33;;;7.20;99.90;;;;;;5014809;28;20776;-76
2023/04/14 05:33:34;;;;;;;4.70;3.07;;;7.30;99.90;;;;;;4988513;28;20422;-75
2023/04/14 05:36:00;;;;;;;6.43;2.73;;;7.50;99.90;;;;;;4989803;28;20190;-76
2023/04/14 05:38:26;;;;;;;5.60;3.00;;;7.60;99.90;;;;;;4995353;28;20466;-77
2023/04/14 05:40:51;;;;;;;4.50;2.83;;;7.50;99.90;;;;;;5000635;28;20450;-76
2023/04/14 05:43:17;;;;;;;5.90;2.70;;;7.70;99.90;;;;;;4996421;28;20186;-75
2023/04/14 05:45:47;;;;;;;4.37;3.27;;;7.70;99.90;;;;;;5002223;28;20207;-75
2023/04/14 05:48:13;;;;;;;5.30;2.67;;;7.70;99.90;;;;;;4999809;28;20447;-76
2023/04/14 05:50:39;;;;;;;4.70;2.60;;;7.80;99.90;;;;;;5010899;28;20453;-76
2023/04/14 05:53:05;;;;;;;3.80;2.50;;;7.80;99.90;;;;;;5007585;28;20957;-75
2023/04/14 05:55:31;;;;;;;5.40;2.47;;;7.90;99.90;;;;;;5001831;28;20183;-76
2023/04/14 05:57:57;;;;;;;7.30;3.40;;;8.10;99.90;;;;;;5009483;28;20221;-76
2023/04/14 06:00:24;;;;;;;5.53;2.87;;;8.30;99.90;;;;;;5011667;28;20433;-76
2023/04/14 06:02:50;;;;;;;4.80;3.00;;;8.30;99.90;;;;;;5013146;28;20438;-76
2023/04/14 06:05:16;;;;;;;5.87;2.50;;;8.50;99.90;;;;;;5007193;28;20434;-76
2023/04/14 06:07:42;;;;;;;8.67;3.30;;;8.50;99.90;;;;;;5007818;28;20434;-76
2023/04/14 06:10:09;;;;;;;4.87;3.57;;;8.60;99.90;;;;;;5006662;28;20500;-76
2023/04/14 06:12:36;;;;;;;4.80;2.90;;;8.70;99.90;;;;;;4995607;28;20197;-76
2023/04/14 06:15:03;;;;;;;6.20;3.00;;;8.80;99.90;;;;;;5004007;28;20442;-76
2023/04/14 06:17:28;;;;;;;7.90;3.03;;;9.00;99.90;;;;;;5003119;28;20577;-76
2023/04/14 06:19:55;;;;;;;4.10;3.00;;;9.00;99.90;;;;;;4991911;28;20518;-76
2023/04/14 06:22:20;;;;;;;13.57;4.30;;;9.20;99.90;;;;;;4993155;28;20180;-76
2023/04/14 06:24:46;;;;;;;8.60;3.57;;;9.30;99.90;;;;;;4992889;28;20496;-76
2023/04/14 06:27:12;;;;;;;5.73;2.63;;;9.40;99.90;;;;;;5007573;28;20183;-75
2023/04/14 06:29:38;;;;;;;4.33;2.73;;;9.50;99.90;;;;;;4992653;28;20192;-76
2023/04/14 06:32:03;;;;;;;7.07;3.00;;;9.60;99.90;;;;;;5003586;28;20188;-76
2023/04/14 06:34:29;;;;;;;4.97;2.63;;;9.70;99.90;;;;;;5003698;28;20430;-76
2023/04/14 06:36:57;;;;;;;6.27;3.20;;;9.90;99.90;;;;;;5000294;28;20179;-76
2023/04/14 06:39:23;;;;;;;5.07;3.30;;;10.00;99.90;;;;;;5027015;28;20497;-76
2023/04/14 06:41:49;;;;;;;10.50;3.63;;;10.10;99.90;;;;;;5012249;28;20517;-76
2023/04/14 06:44:15;;;;;;;6.83;3.00;;;10.20;99.90;;;;;;5011126;28;20501;-75
2023/04/14 06:46:41;;;;;;;4.90;3.43;;;10.30;99.90;;;;;;5001298;28;20188;-76
2023/04/14 06:49:07;;;;;;;9.03;3.17;;;10.40;99.90;;;;;;5006995;28;20183;-76
2023/04/14 06:51:33;;;;;;;7.50;3.30;;;10.50;99.90;;;;;;5006736;28;20218;-76
2023/04/14 06:53:59;;;;;;;4.60;3.40;;;10.60;99.90;;;;;;5010479;28;20414;-76
2023/04/14 06:56:27;;;;;;;11.97;3.83;;;10.70;99.90;;;;;;5010936;28;20439;-76
2023/04/14 06:58:53;;;;;;;5.13;3.50;;;10.70;99.90;;;;;;5005565;28;20468;-76
2023/04/14 07:01:19;;;;;;;7.67;3.30;;;10.80;99.90;;;;;;4990699;28;20472;-76
2023/04/14 07:03:45;;;;;;;5.93;3.27;;;10.90;99.90;;;;;;4995591;28;21515;-76
2023/04/14 07:06:15;;;;;;;6.07;2.70;;;10.90;99.90;;;;;;5012067;28;20221;-76
2023/04/14 07:08:42;;;;;;;4.57;3.07;;;11.00;99.90;;;;;;5011467;28;20421;-76
2023/04/14 07:11:10;;;;;;;5.57;2.50;;;11.10;99.90;;;;;;5026769;28;21168;-76
2023/04/14 07:13:37;;;;;;;7.80;2.73;;;11.10;99.90;;;;;;5026642;28;20422;-76
2023/04/14 07:16:05;;;;;;;7.33;3.60;;;11.20;99.90;;;;;;5011883;28;20469;-75
2023/04/14 07:18:31;;;;;;;5.97;3.00;;;11.20;99.90;;;;;;5010777;28;20461;-76
2023/04/14 07:20:57;;;;;;;7.13;2.97;;;11.20;99.90;;;;;;5010902;28;20479;-76
2023/04/14 07:23:23;;;;;;;5.90;2.60;;;11.20;99.90;;;;;;5010739;28;20187;-76
2023/04/14 07:25:53;;;;;;;8.57;3.30;;;11.30;99.90;;;;;;5011265;28;20441;-76
2023/04/14 07:28:20;;;;;;;9.77;3.27;;;11.30;99.90;;;;;;5010797;28;20195;-76
2023/04/14 07:30:47;;;;;;;7.97;3.10;;;11.30;99.90;;;;;;5008366;28;20434;-76
2023/04/14 07:33:13;;;;;;;6.93;2.77;;;11.20;99.90;;;;;;5010844;28;20476;-76
2023/04/14 07:35:39;;;;;;;3.70;2.47;;;11.20;99.90;;;;;;5010996;28;20430;-76
2023/04/14 07:38:05;;;;;;;6.73;2.97;;;11.20;99.90;;;;;;5010451;28;20472;-76
2023/04/14 07:40:31;;;;;;;8.50;4.53;;;11.20;99.90;;;;;;5010587;28;20441;-76
2023/04/14 07:42:56;;;;;;;5.77;3.10;;;11.20;99.90;;;;;;5010707;28;20781;-76
2023/04/14 07:45:22;;;;;;;4.93;2.70;;;11.30;99.90;;;;;;5010785;28;20190;-76
2023/04/14 07:47:48;;;;;;;4.77;2.97;;;11.30;99.90;;;;;;5009536;28;20194;-76
2023/04/14 07:50:14;;;;;;;7.83;3.60;;;11.30;99.90;;;;;;5026208;28;20448;-76
2023/04/14 07:52:40;;;;;;;6.87;2.57;;;11.40;99.90;;;;;;5011166;28;20422;-76
2023/04/14 07:55:06;;;;;;;6.10;2.70;;;11.40;99.90;;;;;;5010809;28;20934;-76
2023/04/14 07:57:35;;;;;;;6.90;2.97;;;11.40;99.90;;;;;;5009712;28;20215;-76
2023/04/14 08:00:00;;;;;;;5.77;2.90;;;11.50;99.90;;;;;;5010650;28;20607;-76
2023/04/14 08:02:26;;;;;;;5.87;2.87;;;11.50;99.90;;;;;;5011106;28;20472;-76
2023/04/14 08:04:52;;;;;;;5.00;2.23;;;11.50;99.90;;;;;;5010424;28;20429;-76
2023/04/14 08:07:18;;;;;;;6.07;3.10;;;11.50;99.90;;;;;;5010264;28;20187;-76
2023/04/14 08:09:44;;;;;;;11.33;3.30;;;11.60;99.90;;;;;;5001718;28;20466;-76
2023/04/14 08:12:10;;;;;;;6.30;2.50;;;11.60;99.90;;;;;;5009448;28;20461;-76
2023/04/14 08:14:36;;;;;;;5.43;2.73;;;11.60;99.90;;;;;;5007987;28;20179;-76
2023/04/14 08:17:02;;;;;;;4.93;2.13;;;11.50;99.90;;;;;;5009195;28;20414;-75
2023/04/14 08:19:29;;;;;;;7.23;2.20;;;11.50;99.90;;;;;;5008390;28;20194;-76
2023/04/14 08:21:55;;;;;;;4.33;2.40;;;11.50;99.90;;;;;;5010742;28;20185;-77
2023/04/14 08:24:21;;;;;;;5.67;2.33;;;11.60;99.90;;;;;;5010354;28;20429;-76
2023/04/14 08:26:47;;;;;;;6.17;2.57;;;11.60;99.90;;;;;;5007918;28;20430;-76
2023/04/14 08:29:13;;;;;;;7.33;2.73;;;11.50;99.90;;;;;;5011430;28;20746;-77
2023/04/14 08:31:38;;;;;;;5.73;2.70;;;11.50;99.90;;;;;;5010858;28;20207;-77
2023/04/14 08:34:04;;;;;;;4.03;2.50;;;11.50;99.90;;;;;;5010692;28;20646;-77
2023/04/14 08:36:30;;;;;;;6.37;2.53;;;11.60;99.90;;;;;;5010394;28;20183;-77
2023/04/14 08:38:58;;;;;;;5.73;2.40;;;11.70;99.90;;;;;;5010527;28;20599;-76
2023/04/14 08:41:25;;;;;;;5.37;2.20;;;11.70;99.90;;;;;;5010987;28;21005;-77
2023/04/14 08:43:51;;;;;;;5.30;2.33;;;11.70;99.90;;;;;;5024269;28;20414;-76
2023/04/14 08:46:18;;;;;;;5.53;2.60;;;11.70;99.90;;;;;;5010991;28;20418;-77
2023/04/14 08:48:49;;;;;;;6.67;3.10;;;11.80;99.90;;;;;;5010708;28;20175;-77
2023/04/14 08:51:27;;;;;;;6.20;2.50;;;11.90;99.90;;;;;;5020129;28;20458;-77
2023/04/14 08:53:55;;;;;;;5.40;2.43;;;11.90;99.90;;;;;;4990941;28;20834;-77
2023/04/14 08:56:22;;;;;;;5.57;2.40;;;11.90;99.90;;;;;;5022302;28;20429;-77
2023/04/14 08:58:49;;;;;;;4.90;2.57;;;11.90;99.90;;;;;;5009956;28;20462;-76
2023/04/14 09:01:15;;;;;;;3.80;1.90;;;12.00;99.90;;;;;;5010176;28;20536;-76
2023/04/14 09:03:42;;;;;;;6.63;2.40;;;12.10;99.90;;;;;;5009342;28;20440;-77
2023/04/14 09:06:08;;;;;;;6.33;2.60;;;12.10;99.90;;;;;;5025703;28;20414;-77
2023/04/14 09:08:35;;;;;;;7.23;2.50;;;12.10;99.90;;;;;;5009779;28;20417;-77
2023/04/14 09:11:03;;;;;;;3.70;2.57;;;12.10;99.90;;;;;;5010010;28;20437;-76
2023/04/14 09:13:30;;;;;;;5.80;2.77;;;12.10;99.90;;;;;;5009809;28;20418;-77
2023/04/14 09:15:56;;;;;;;12.50;3.30;;;12.20;99.90;;;;;;5010401;28;20418;-76
2023/04/14 09:18:22;;;;;;;7.00;2.73;;;12.20;99.90;;;;;;5009895;28;20453;-77
2023/04/14 09:20:48;;;;;;;7.10;2.70;;;12.40;99.90;;;;;;5009850;28;20489;-76
2023/04/14 09:23:14;;;;;;;4.80;2.60;;;12.50;99.90;;;;;;5009571;28;20414;-77
2023/04/14 09:25:41;;;;;;;4.50;2.20;;;12.50;99.90;;;;;;5007719;28;20183;-77
2023/04/14 09:28:07;;;;;;;4.80;2.73;;;12.60;99.90;;;;;;5024324;28;20233;-77
2023/04/14 09:30:33;;;;;;;8.13;2.87;;;12.70;99.10;;;;;;5009219;28;20496;-77
2023/04/14 09:33:05;;;;;;;4.97;2.60;;;12.70;99.80;;;;;;5024418;28;20513;-76
2023/04/14 09:35:49;;;;;;;6.77;2.60;;;12.90;99.40;;;;;;5024717;28;20426;-76
2023/04/14 09:38:31;;;;;;;3.50;1.70;;;13.00;98.60;;;;;;5008947;28;20472;-77
2023/04/14 09:40:57;;;;;;;5.73;2.47;;;13.10;98.30;;;;;;5009025;28;20496;-76
2023/04/14 09:43:25;;;;;;;4.10;2.03;;;13.30;97.50;;;;;;5007547;28;20864;-77
2023/04/14 09:45:52;;;;;;;6.10;2.40;;;13.40;96.70;;;;;;5024698;28;20647;-77
2023/04/14 09:48:19;;;;;;;7.20;2.00;;;13.50;96.60;;;;;;5024150;28;20453;-77
2023/04/14 09:51:02;;;;;;;3.73;2.23;;;13.70;96.60;;;;;;5024118;28;20512;-77
2023/04/14 09:53:33;;;;;;;6.30;2.30;;;13.80;96.20;;;;;;5008757;28;20898;-76
2023/04/14 09:56:01;;;;;;;7.20;2.23;;;13.70;95.20;;;;;;5009206;28;20430;-77
2023/04/14 09:58:45;;;;;;;5.70;2.20;;;13.70;95.70;;;;;;5007604;28;20874;-77
2023/04/14 10:01:16;;;;;;;5.50;2.03;;;13.60;96.00;;;;;;5007812;28;20438;-76
2023/04/14 10:03:44;;;;;;;8.70;2.20;;;13.60;95.80;;;;;;5023470;28;20955;-77
2023/04/14 10:06:19;;;;;;;5.73;2.20;;;13.70;95.70;;;;;;5009133;28;20422;-77
2023/04/14 10:08:54;;;;;;;5.63;2.50;;;13.60;95.20;;;;;;5009074;28;20930;-77
2023/04/14 10:11:23;;;;;;;5.67;2.50;;;13.60;96.20;;;;;;5023926;28;20818;-77
2023/04/14 10:14:00;;;;;;;2.97;1.83;;;13.70;96.10;;;;;;5008876;28;20421;-77
2023/04/14 10:16:26;;;;;;;4.30;1.97;;;13.80;96.40;;;;;;5023959;28;20425;-77
2023/04/14 10:18:53;;;;;;;3.63;1.43;;;14.00;96.10;;;;;;5008701;28;20465;-77
2023/04/14 10:21:21;;;;;;;5.33;2.20;;;14.00;96.10;;;;;;5023451;28;20202;-77
2023/04/14 10:23:47;;;;;;;4.90;1.90;;;14.00;94.80;;;;;;5023714;28;20438;-76
2023/04/14 10:26:14;;;;;;;7.00;2.50;;;14.00;94.30;;;;;;5013201;28;20504;-75
2023/04/14 10:28:44;;;;;;;6.13;1.77;;;14.10;94.60;;;;;;5008317;28;20425;-77
2023/04/14 10:31:16;;;;;;;4.10;1.90;;;14.10;94.70;;;;;;5023652;28;20438;-77
2023/04/14 10:33:42;;;;;;;6.43;2.60;;;14.10;94.70;;;;;;5008617;28;20421;-76
2023/04/14 10:36:08;;;;;;;4.50;2.10;;;14.20;95.60;;;;;;5009508;28;20417;-76
2023/04/14 10:38:38;;;;;;;5.93;2.27;;;14.30;94.90;;;;;;5011919;28;20465;-76
2023/04/14 10:41:05;;;;;;;3.17;1.80;;;14.40;94.90;;;;;;5027210;28;20461;-76
2023/04/14 10:43:33;;;;;;;7.00;2.20;;;14.50;94.30;;;;;;5012453;28;20417;-77
2023/04/14 10:45:59;;;;;;;6.57;1.90;;;14.60;95.10;;;;;;5012880;28;20453;-76
2023/04/14 10:48:38;;;;;;;3.60;2.50;;;14.70;94.40;;;;;;5012151;28;21268;-76
2023/04/14 10:51:07;;;;;;;7.97;2.33;;;14.70;93.10;;;;;;5011900;28;20248;-75
2023/04/14 10:53:45;;;;;;;9.27;2.10;;;14.60;92.70;;;;;;5027137;28;20485;-76
2023/04/14 10:56:11;;;;;;;2.83;1.60;;;14.50;93.20;;;;;;5011940;28;20476;-76
2023/04/14 10:58:37;;;;;;;6.30;2.53;;;14.40;93.10;;;;;;5026912;28;20963;-77
2023/04/14 11:01:29;;;;;;;5.83;2.00;;;14.40;93.60;;;;;;5011809;28;20446;-77
2023/04/14 11:03:55;;;;;;;9.77;1.93;;;14.40;93.20;;;;;;5027107;28;20512;-76
2023/04/14 11:07:07;;;;;;;6.43;2.27;;;14.40;93.40;;;;;;5027095;28;20442;-76
2023/04/14 11:09:37;;;;;;;2.73;1.43;;;14.50;94.00;;;;;;4953638;28;20435;-76
2023/04/14 11:12:21;;;;;;;3.27;1.53;;;14.60;93.50;;;;;;4970062;28;20791;-77
2023/04/14 11:14:46;;;;;;;3.20;1.80;;;14.60;93.00;;;;;;4997602;28;20761;-76
2023/04/14 11:17:20;;;;;;;4.20;1.60;;;14.70;91.90;;;;;;5026602;28;20426;-77
2023/04/14 11:19:46;;;;;;;3.60;1.53;;;14.60;91.70;;;;;;5026564;28;20636;-77
2023/04/14 11:22:12;;;;;;;3.83;1.50;;;14.60;91.30;;;;;;5011502;28;20448;-77
2023/04/14 11:24:39;;;;;;;3.33;1.93;;;14.60;90.70;;;;;;5026233;28;20468;-77
2023/04/14 11:27:09;;;;;;;4.37;1.97;;;14.70;91.50;;;;;;5011089;28;20316;-77
2023/04/14 11:29:35;;;;;;;4.33;1.70;;;14.90;93.40;;;;;;5011187;28;20421;-76
2023/04/14 11:32:05;;;;;;;4.17;2.50;;;15.00;87.90;;;;;;5011554;28;20411;-77
2023/04/14 11:34:32;;;;;;;4.20;1.60;;;15.10;89.60;;;;;;5026186;28;20645;-76
2023/04/14 11:37:00;;;;;;;4.43;1.83;;;15.20;87.50;;;;;;5025972;28;20422;-77
2023/04/14 11:39:27;;;;;;;4.33;2.00;;;15.30;86.40;;;;;;5026229;28;20556;-77
2023/04/14 11:41:54;;;;;;;2.60;1.20;;;15.40;87.60;;;;;;5011559;28;20521;-76
2023/04/14 11:44:21;;;;;;;5.67;2.13;;;15.60;86.40;;;;;;5009847;28;20734;-77
2023/04/14 11:46:48;;;;;;;4.40;1.87;;;15.60;85.30;;;;;;5009291;28;20477;-77
2023/04/14 11:49:14;;;;;;;3.53;1.40;;;15.60;81.30;;;;;;5010856;28;20501;-76
2023/04/14 11:51:40;;;;;;;4.33;1.60;;;15.60;80.70;;;;;;5026148;28;20513;-77
2023/04/14 11:54:06;;;;;;;3.97;1.43;;;15.40;78.70;;;;;;5010868;28;20176;-77
2023/04/14 11:56:32;;;;;;;3.77;1.60;;;15.40;77.30;;;;;;5010958;28;20505;-76
2023/04/14 11:58:59;;;;;;;4.10;1.43;;;15.40;77.90;;;;;;5025889;28;20552;-77
2023/04/14 12:01:25;;;;;;;2.70;1.20;;;15.40;76.80;;;;;;5010665;28;20207;-76
2023/04/14 12:03:52;;;;;;;5.47;1.33;;;15.40;79.10;;;;;;5008517;28;20429;-77
2023/04/14 12:06:18;;;;;;;1.90;1.30;;;15.40;77.50;;;;;;5009877;28;20417;-76
2023/04/14 12:08:49;;;;;;;2.70;1.33;;;15.40;76.70;;;;;;5025966;28;20414;-77
2023/04/14 12:11:16;;;;;;;3.77;1.40;;;15.50;79.40;;;;;;5011034;28;20198;-76
2023/04/14 12:13:43;;;;;;;5.50;1.63;;;15.70;80.50;;;;;;5010885;28;20410;-77
2023/04/14 12:16:10;;;;;;;2.20;1.00;;;15.70;75.60;;;;;;5011181;28;20421;-77
2023/04/14 12:18:36;;;;;;;2.80;1.13;;;15.70;75.00;;;;;;5025978;28;20458;-77
2023/04/14 12:21:03;;;;;;;6.10;1.40;;;15.60;70.20;;;;;;5010749;28;20961;-77
2023/04/14 12:23:33;;;;;;;4.60;1.20;;;15.40;72.30;;;;;;5010421;28;20586;-76
2023/04/14 12:25:59;;;;;;;5.27;1.33;;;15.30;73.80;;;;;;5011083;28;20413;-77
2023/04/14 12:28:28;;;;;;;2.87;1.40;;;15.30;74.20;;;;;;5010556;28;20844;-77
2023/04/14 12:31:02;;;;;;;4.17;1.30;;;15.20;77.00;;;;;;5010270;28;20199;-77
2023/04/14 12:33:30;;;;;;;1.80;1.13;;;15.10;75.70;;;;;;5010244;28;20484;-77
2023/04/14 12:36:03;;;;;;;3.43;1.40;;;15.10;75.30;;;;;;5010752;28;20414;-77
2023/04/14 12:38:30;;;;;;;2.03;1.20;;;15.10;74.00;;;;;;5010103;28;20462;-77
2023/04/14 12:40:55;;;;;;;4.27;1.40;;;15.10;74.50;;;;;;5025432;28;20461;-77
2023/04/14 12:43:39;;;;;;;3.60;1.40;;;15.10;76.30;;;;;;5025123;28;20453;-77
2023/04/14 12:46:08;;;;;;;4.87;2.47;;;15.00;75.80;;;;;;5025686;28;20473;-77
2023/04/14 12:48:47;;;;;;;5.47;1.83;;;15.00;76.60;;;;;;5008704;28;20915;-77
2023/04/14 12:51:17;;;;;;;3.77;1.30;;;14.90;76.80;;;;;;5010094;28;21139;-77
2023/04/14 12:53:44;;;;;;;4.70;1.40;;;14.90;77.40;;;;;;5024759;28;20449;-76
2023/04/14 12:56:18;;;;;;;3.47;1.33;;;14.80;78.40;;;;;;5010777;28;20848;-77
2023/04/14 12:58:45;;;;;;;2.97;1.67;;;14.70;80.20;;;;;;5005082;28;20459;-77